createdAt,value
2023-05-24T00:00:30.108Z,2611.00
2023-05-24T00:01:30.146Z,2605.00
2023-05-24T00:02:30.276Z,2602.00
2023-05-24T00:03:30.269Z,2592.00
2023-05-24T00:04:30.566Z,2589.00
2023-05-24T00:05:30.288Z,2590.00
2023-05-24T00:06:30.344Z,2545.00
2023-05-24T00:07:30.361Z,2572.00
2023-05-24T00:08:30.484Z,2582.00
2023-05-24T00:09:30.436Z,2577.00
2023-05-24T00:10:30.521Z,2572.00
2023-05-24T00:11:30.512Z,2580.00
2023-05-24T00:12:30.539Z,2579.00
2023-05-24T00:13:30.620Z,2585.00
2023-05-24T00:14:30.634Z,2586.00
2023-05-24T00:15:30.661Z,2565.00
2023-05-24T00:16:30.743Z,2574.00
2023-05-24T00:17:30.792Z,2563.00
2023-05-24T00:18:30.783Z,2557.00
2023-05-24T00:19:30.816Z,2561.00
2023-05-24T00:20:30.882Z,2552.00
2023-05-24T00:21:30.885Z,2545.00
2023-05-24T00:22:30.943Z,2511.00
2023-05-24T00:23:31.046Z,2532.00
2023-05-24T00:24:31.018Z,2538.00
2023-05-24T00:25:31.056Z,2536.00
2023-05-24T00:26:31.081Z,2541.00
2023-05-24T00:27:31.135Z,2552.00
2023-05-24T00:28:31.690Z,2554.00
2023-05-24T00:29:32.366Z,2559.00
2023-05-24T00:30:31.253Z,2562.00
2023-05-24T00:31:31.320Z,2559.00
2023-05-24T00:32:31.339Z,2546.00
2023-05-24T00:33:31.364Z,2549.00
2023-05-24T00:34:31.401Z,2543.00
2023-05-24T00:35:31.445Z,2545.00
2023-05-24T00:36:31.496Z,2547.00
2023-05-24T00:37:31.591Z,2544.00
2023-05-24T00:38:31.569Z,2554.00
2023-05-24T00:39:31.605Z,2548.00
2023-05-24T00:40:31.648Z,2545.00
2023-05-24T00:41:31.689Z,2551.00
2023-05-24T00:42:31.832Z,2547.00
2023-05-24T00:43:31.777Z,2548.00
2023-05-24T00:44:31.836Z,2550.00
2023-05-24T00:45:33.679Z,2559.00
2023-05-24T00:46:31.977Z,2557.00
2023-05-24T00:47:32.002Z,2542.00
2023-05-24T00:48:31.974Z,2537.00
2023-05-24T00:49:32.011Z,2542.00
2023-05-24T00:50:32.042Z,2534.00
2023-05-24T00:51:32.193Z,2538.00
2023-05-24T00:52:32.117Z,2523.00
2023-05-24T00:53:32.154Z,2524.00
2023-05-24T00:54:32.195Z,2520.00
2023-05-24T00:55:32.323Z,2523.00
2023-05-24T00:56:32.277Z,2527.00
2023-05-24T00:57:32.324Z,2527.00
2023-05-24T00:58:32.407Z,2520.00
2023-05-24T00:59:32.406Z,2518.00
2023-05-24T01:00:32.449Z,2520.00
2023-05-24T01:01:32.523Z,2514.00
2023-05-24T01:02:32.641Z,2516.00
2023-05-24T01:03:32.738Z,2520.00
2023-05-24T01:04:32.648Z,2518.00
2023-05-24T01:05:32.663Z,2511.00
2023-05-24T01:06:32.702Z,2515.00
2023-05-24T01:07:32.762Z,2506.00
2023-05-24T01:08:32.858Z,2503.00
2023-05-24T01:09:32.862Z,2500.00
2023-05-24T01:10:32.960Z,2493.00
2023-05-24T01:11:32.909Z,2502.00
2023-05-24T01:12:32.953Z,2501.00
2023-05-24T01:13:32.999Z,2505.00
2023-05-24T01:14:33.035Z,2501.00
2023-05-24T01:15:33.073Z,2500.00
2023-05-24T01:16:33.220Z,2496.00
2023-05-24T01:17:33.240Z,2491.00
2023-05-24T01:18:33.201Z,2501.00
2023-05-24T01:19:33.253Z,2498.00
2023-05-24T01:20:33.369Z,2498.00
2023-05-24T01:21:33.324Z,2496.00
2023-05-24T01:22:33.384Z,2497.00
2023-05-24T01:23:33.720Z,2508.00
2023-05-24T01:24:33.541Z,2504.00
2023-05-24T01:25:33.489Z,2493.00
2023-05-24T01:26:33.548Z,2485.00
2023-05-24T01:27:33.583Z,2478.00
2023-05-24T01:28:33.628Z,2481.00
2023-05-24T01:29:33.677Z,2454.00
2023-05-24T01:30:33.734Z,2462.00
2023-05-24T01:31:33.766Z,2465.00
2023-05-24T01:32:33.871Z,2461.00
2023-05-24T01:33:33.856Z,2456.00
2023-05-24T01:34:33.929Z,2465.00
2023-05-24T01:35:33.951Z,2466.00
2023-05-24T01:36:33.999Z,2469.00
2023-05-24T01:37:34.039Z,2469.00
2023-05-24T01:38:34.089Z,2475.00
2023-05-24T01:39:34.130Z,2479.00
2023-05-24T01:40:34.193Z,2487.00
2023-05-24T01:41:34.225Z,2477.00
2023-05-24T01:42:34.260Z,2469.00
2023-05-24T01:43:34.315Z,2480.00
2023-05-24T01:44:34.349Z,2476.00
2023-05-24T01:45:34.394Z,2480.00
2023-05-24T01:46:34.475Z,2487.00
2023-05-24T01:47:35.228Z,2489.00
2023-05-24T01:48:34.530Z,2449.00
2023-05-24T01:49:34.582Z,2432.00
2023-05-24T01:50:34.625Z,2391.00
2023-05-24T01:51:34.671Z,2419.00
2023-05-24T01:52:34.702Z,2449.00
2023-05-24T01:53:34.785Z,2456.00
2023-05-24T01:54:34.814Z,2452.00
2023-05-24T01:55:34.850Z,2441.00
2023-05-24T01:56:34.898Z,2451.00
2023-05-24T01:57:34.941Z,2449.00
2023-05-24T01:58:35.065Z,2438.00
2023-05-24T01:59:35.031Z,2430.00
2023-05-24T02:00:35.079Z,2321.00
2023-05-24T02:01:35.205Z,2447.00
2023-05-24T02:02:35.332Z,2456.00
2023-05-24T02:03:35.233Z,2373.00
2023-05-24T02:04:35.261Z,2402.00
2023-05-24T02:05:35.303Z,2422.00
2023-05-24T02:06:35.425Z,2432.00
2023-05-24T02:07:35.392Z,2431.00
2023-05-24T02:08:35.479Z,2411.00
2023-05-24T02:09:35.488Z,2424.00
2023-05-24T02:10:35.520Z,2436.00
2023-05-24T02:11:35.733Z,2431.00
2023-05-24T02:12:35.598Z,2430.00
2023-05-24T02:13:35.717Z,2421.00
2023-05-24T02:14:35.688Z,2427.00
2023-05-24T02:15:35.740Z,2424.00
2023-05-24T02:16:35.812Z,2416.00
2023-05-24T02:17:35.884Z,2414.00
2023-05-24T02:18:35.915Z,2410.00
2023-05-24T02:19:35.963Z,2400.00
2023-05-24T02:20:36.031Z,2393.00
2023-05-24T02:21:35.987Z,2391.00
2023-05-24T02:22:36.029Z,2401.00
2023-05-24T02:23:36.077Z,2396.00
2023-05-24T02:24:36.106Z,2390.00
2023-05-24T02:25:36.155Z,2387.00
2023-05-24T02:26:36.198Z,2389.00
2023-05-24T02:27:36.238Z,2386.00
2023-05-24T02:28:36.292Z,2384.00
2023-05-24T02:29:36.339Z,2380.00
2023-05-24T02:30:36.380Z,2393.00
2023-05-24T02:31:36.448Z,2397.00
2023-05-24T02:32:36.564Z,2398.00
2023-05-24T02:33:36.516Z,2394.00
2023-05-24T02:34:36.556Z,2389.00
2023-05-24T02:35:36.608Z,2379.00
2023-05-24T02:36:36.643Z,2386.00
2023-05-24T02:37:36.682Z,2378.00
2023-05-24T02:38:36.733Z,2378.00
2023-05-24T02:39:36.784Z,2376.00
2023-05-24T02:40:36.824Z,2302.00
2023-05-24T02:41:36.880Z,2340.00
2023-05-24T02:42:36.931Z,2376.00
2023-05-24T02:43:37.040Z,2376.00
2023-05-24T02:44:37.028Z,2356.00
2023-05-24T02:45:37.075Z,2342.00
2023-05-24T02:46:37.170Z,2337.00
2023-05-24T02:47:37.214Z,2346.00
2023-05-24T02:48:37.282Z,2343.00
2023-05-24T02:49:37.747Z,2351.00
2023-05-24T02:50:37.334Z,2328.00
2023-05-24T02:51:37.378Z,2327.00
2023-05-24T02:52:37.431Z,2302.00
2023-05-24T02:53:37.481Z,2326.00
2023-05-24T02:54:37.542Z,2326.00
2023-05-24T02:55:37.572Z,2330.00
2023-05-24T02:56:37.638Z,2334.00
2023-05-24T02:57:37.665Z,2324.00
2023-05-24T02:58:37.758Z,2247.00
2023-05-24T02:59:38.247Z,2319.00
2023-05-24T03:00:37.796Z,2305.00
2023-05-24T03:01:37.877Z,2309.00
2023-05-24T03:02:38.001Z,2303.00
2023-05-24T03:03:38.045Z,2294.00
2023-05-24T03:04:37.956Z,2257.00
2023-05-24T03:05:38.018Z,2283.00
2023-05-24T03:06:38.067Z,2251.00
2023-05-24T03:07:38.100Z,2258.00
2023-05-24T03:08:38.156Z,2261.00
2023-05-24T03:09:38.215Z,2267.00
2023-05-24T03:10:38.249Z,2269.00
2023-05-24T03:11:38.300Z,2265.00
2023-05-24T03:12:38.351Z,2298.00
2023-05-24T03:13:38.365Z,2253.00
2023-05-24T03:14:38.422Z,2281.00
2023-05-24T03:15:38.467Z,2270.00
2023-05-24T03:16:38.599Z,2263.00
2023-05-24T03:17:38.605Z,2264.00
2023-05-24T03:18:38.614Z,2242.00
2023-05-24T03:19:38.659Z,2259.00
2023-05-24T03:20:38.737Z,2268.00
2023-05-24T03:21:38.840Z,2267.00
2023-05-24T03:22:38.813Z,2263.00
2023-05-24T03:23:38.846Z,2260.00
2023-05-24T03:24:38.883Z,2260.00
2023-05-24T03:25:39.125Z,2273.00
2023-05-24T03:26:38.967Z,2250.00
2023-05-24T03:27:39.010Z,2279.00
2023-05-24T03:28:39.064Z,2282.00
2023-05-24T03:29:39.111Z,2266.00
2023-05-24T03:30:39.143Z,2264.00
2023-05-24T03:31:39.230Z,2263.00
2023-05-24T03:32:39.283Z,2257.00
2023-05-24T03:33:39.315Z,2270.00
2023-05-24T03:34:39.373Z,2270.00
2023-05-24T03:35:39.431Z,2271.00
2023-05-24T03:36:39.451Z,2260.00
2023-05-24T03:37:39.513Z,2244.00
2023-05-24T03:38:39.559Z,2252.00
2023-05-24T03:39:39.669Z,2264.00
2023-05-24T03:40:39.686Z,2252.00
2023-05-24T03:41:39.704Z,2227.00
2023-05-24T03:42:39.749Z,2225.00
2023-05-24T03:43:39.790Z,2238.00
2023-05-24T03:44:39.917Z,2239.00
2023-05-24T03:45:40.316Z,2160.00
2023-05-24T03:46:39.972Z,2188.00
2023-05-24T03:47:39.929Z,2189.00
2023-05-24T03:48:40.117Z,2180.00
2023-05-24T03:49:39.966Z,2239.00
2023-05-24T03:50:40.291Z,2221.00
2023-05-24T03:51:40.060Z,2251.00
2023-05-24T03:52:40.109Z,2140.00
2023-05-24T03:53:40.153Z,2194.00
2023-05-24T03:54:40.193Z,2202.00
2023-05-24T03:55:40.220Z,2193.00
2023-05-24T03:56:40.280Z,2126.00
2023-05-24T03:57:40.308Z,2170.00
2023-05-24T03:58:40.361Z,2188.00
2023-05-24T03:59:41.354Z,2195.00
2023-05-24T04:00:40.552Z,2171.00
2023-05-24T04:01:40.474Z,2181.00
2023-05-24T04:02:40.595Z,2203.00
2023-05-24T04:03:40.628Z,2204.00
2023-05-24T04:04:40.588Z,2177.00
2023-05-24T04:05:40.612Z,2185.00
2023-05-24T04:06:40.652Z,2166.00
2023-05-24T04:07:40.711Z,2163.00
2023-05-24T04:08:40.751Z,2181.00
2023-05-24T04:09:40.774Z,2223.00
2023-05-24T04:10:41.127Z,2212.00
2023-05-24T04:11:40.871Z,2196.00
2023-05-24T04:12:41.784Z,2203.00
2023-05-24T04:13:40.927Z,2189.00
2023-05-24T04:14:40.965Z,2182.00
2023-05-24T04:15:41.032Z,2184.00
2023-05-24T04:16:41.076Z,2199.00
2023-05-24T04:17:41.168Z,2187.00
2023-05-24T04:18:41.199Z,2176.00
2023-05-24T04:19:41.198Z,2199.00
2023-05-24T04:20:41.455Z,2120.00
2023-05-24T04:21:41.302Z,2112.00
2023-05-24T04:22:41.404Z,2206.00
2023-05-24T04:23:42.270Z,2183.00
2023-05-24T04:24:41.444Z,2183.00
2023-05-24T04:25:41.492Z,2173.00
2023-05-24T04:26:41.628Z,2198.00
2023-05-24T04:27:41.555Z,2191.00
2023-05-24T04:28:41.541Z,2178.00
2023-05-24T04:29:41.566Z,2169.00
2023-05-24T04:30:41.794Z,2177.00
2023-05-24T04:31:41.646Z,2247.00
2023-05-24T04:32:41.672Z,2161.00
2023-05-24T04:33:41.706Z,2176.00
2023-05-24T04:34:41.665Z,2177.00
2023-05-24T04:35:41.656Z,2205.00
2023-05-24T04:36:41.698Z,2207.00
2023-05-24T04:37:41.701Z,2188.00
2023-05-24T04:38:41.713Z,2147.00
2023-05-24T04:39:41.817Z,2143.00
2023-05-24T04:40:41.905Z,2152.00
2023-05-24T04:41:41.747Z,2172.00
2023-05-24T04:42:41.779Z,2156.00
2023-05-24T04:43:41.816Z,2157.00
2023-05-24T04:44:41.863Z,2157.00
2023-05-24T04:45:41.893Z,2141.00
2023-05-24T04:46:41.971Z,2154.00
2023-05-24T04:47:41.992Z,2159.00
2023-05-24T04:48:41.959Z,2152.00
2023-05-24T04:49:42.713Z,2153.00
2023-05-24T04:50:42.184Z,2146.00
2023-05-24T04:51:42.017Z,2136.00
2023-05-24T04:52:42.045Z,2145.00
2023-05-24T04:53:42.087Z,2134.00
2023-05-24T04:54:42.713Z,2163.00
2023-05-24T04:55:42.169Z,2135.00
2023-05-24T04:56:42.152Z,2167.00
2023-05-24T04:57:42.181Z,2148.00
2023-05-24T04:58:42.218Z,2144.00
2023-05-24T04:59:42.263Z,2133.00
2023-05-24T05:00:42.420Z,2119.00
2023-05-24T05:01:42.388Z,2137.00
2023-05-24T05:02:42.383Z,2134.00
2023-05-24T05:03:42.424Z,2131.00
2023-05-24T05:04:42.798Z,2141.00
2023-05-24T05:05:42.465Z,2138.00
2023-05-24T05:06:42.393Z,2141.00
2023-05-24T05:07:42.439Z,2173.00
2023-05-24T05:08:42.407Z,2216.00
2023-05-24T05:09:42.797Z,2062.00
2023-05-24T05:10:42.584Z,2143.00
2023-05-24T05:11:42.504Z,2091.00
2023-05-24T05:12:42.455Z,2098.00
2023-05-24T05:13:42.477Z,2124.00
2023-05-24T05:14:42.501Z,2081.00
2023-05-24T05:15:43.041Z,2135.00
2023-05-24T05:16:42.572Z,2105.00
2023-05-24T05:17:42.589Z,2197.00
2023-05-24T05:18:42.588Z,2234.00
2023-05-24T05:19:42.589Z,2228.00
2023-05-24T05:20:42.892Z,2243.00
2023-05-24T05:21:42.583Z,1784.00
2023-05-24T05:22:42.581Z,1539.00
2023-05-24T05:23:42.585Z,1251.00
2023-05-24T05:24:42.661Z,1101.00
2023-05-24T05:25:42.694Z,1032.00
2023-05-24T05:26:42.683Z,983.00
2023-05-24T05:27:42.716Z,990.00
2023-05-24T05:28:42.841Z,938.00
2023-05-24T05:29:42.803Z,892.00
2023-05-24T05:30:43.046Z,840.00
2023-05-24T05:31:42.925Z,850.00
2023-05-24T05:32:43.072Z,862.00
2023-05-24T05:33:42.960Z,884.00
2023-05-24T05:34:42.967Z,936.00
2023-05-24T05:35:42.961Z,969.00
2023-05-24T05:36:42.957Z,1078.00
2023-05-24T05:37:42.954Z,1123.00
2023-05-24T05:38:42.955Z,1153.00
2023-05-24T05:39:42.963Z,1170.00
2023-05-24T05:40:43.227Z,1249.00
2023-05-24T05:41:45.427Z,1274.00
2023-05-24T05:42:43.032Z,1315.00
2023-05-24T05:43:43.013Z,1351.00
2023-05-24T05:44:42.985Z,1377.00
2023-05-24T05:45:42.995Z,1420.00
2023-05-24T05:46:42.924Z,1464.00
2023-05-24T05:47:42.918Z,1479.00
2023-05-24T05:48:44.293Z,1507.00
2023-05-24T05:49:42.860Z,1523.00
2023-05-24T05:50:43.051Z,1549.00
2023-05-24T05:51:43.397Z,1652.00
2023-05-24T05:52:42.787Z,1667.00
2023-05-24T05:53:42.751Z,1684.00
2023-05-24T05:54:42.730Z,1769.00
2023-05-24T05:55:42.777Z,1764.00
2023-05-24T05:56:42.681Z,1782.00
2023-05-24T05:57:42.656Z,1829.00
2023-05-24T05:58:43.311Z,1848.00
2023-05-24T05:59:42.594Z,1868.00
2023-05-24T06:00:42.745Z,1950.00
2023-05-24T06:01:42.568Z,1952.00
2023-05-24T06:02:42.595Z,1975.00
2023-05-24T06:03:42.585Z,2000.00
2023-05-24T06:04:42.473Z,2031.00
2023-05-24T06:05:42.411Z,2063.00
2023-05-24T06:06:42.384Z,2121.00
2023-05-24T06:07:42.356Z,2131.00
2023-05-24T06:08:42.332Z,2155.00
2023-05-24T06:09:42.292Z,2176.00
2023-05-24T06:10:42.573Z,2193.00
2023-05-24T06:11:42.223Z,2223.00
2023-05-24T06:12:42.181Z,2270.00
2023-05-24T06:13:42.159Z,2287.00
2023-05-24T06:14:42.121Z,2323.00
2023-05-24T06:15:42.085Z,2354.00
2023-05-24T06:16:42.150Z,2394.00
2023-05-24T06:17:42.055Z,2422.00
2023-05-24T06:18:50.173Z,2465.00
2023-05-24T06:19:42.972Z,2522.00
2023-05-24T06:20:42.205Z,2539.00
2023-05-24T06:21:41.883Z,2564.00
2023-05-24T06:22:41.896Z,2619.00
2023-05-24T06:23:41.918Z,2595.00
2023-05-24T06:24:41.946Z,2607.00
2023-05-24T06:25:41.953Z,2535.00
2023-05-24T06:26:41.979Z,2662.00
2023-05-24T06:27:42.000Z,2622.00
2023-05-24T06:28:42.028Z,2523.00
2023-05-24T06:29:42.082Z,2508.00
2023-05-24T06:30:42.439Z,2524.00
2023-05-24T06:31:42.151Z,2544.00
2023-05-24T06:32:42.207Z,2583.00
2023-05-24T06:33:44.637Z,2608.00
2023-05-24T06:34:42.114Z,2655.00
2023-05-24T06:35:42.072Z,2705.00
2023-05-24T06:36:42.037Z,2735.00
2023-05-24T06:37:42.066Z,2745.00
2023-05-24T06:38:41.960Z,2777.00
2023-05-24T06:39:41.927Z,2804.00
2023-05-24T06:40:42.119Z,2839.00
2023-05-24T06:41:41.848Z,2853.00
2023-05-24T06:42:41.816Z,2868.00
2023-05-24T06:43:41.767Z,2895.00
2023-05-24T06:44:41.774Z,2921.00
2023-05-24T06:45:41.719Z,2951.00
2023-05-24T06:46:41.874Z,2979.00
2023-05-24T06:47:42.436Z,2994.00
2023-05-24T06:48:41.807Z,3040.00
2023-05-24T06:49:41.733Z,3076.00
2023-05-24T06:50:42.822Z,3117.00
2023-05-24T06:51:41.781Z,2288.00
2023-05-24T06:52:41.791Z,1750.00
2023-05-24T06:53:41.769Z,1489.00
2023-05-24T06:54:41.758Z,1247.00
2023-05-24T06:55:41.768Z,1075.00
2023-05-24T06:56:41.781Z,1040.00
2023-05-24T06:57:41.818Z,976.00
2023-05-24T06:58:41.854Z,912.00
2023-05-24T06:59:41.881Z,894.00
2023-05-24T07:00:42.082Z,870.00
2023-05-24T07:01:41.979Z,797.00
2023-05-24T07:02:42.387Z,784.00
2023-05-24T07:03:41.987Z,771.00
2023-05-24T07:04:42.083Z,761.00
2023-05-24T07:05:42.041Z,745.00
2023-05-24T07:06:42.097Z,728.00
2023-05-24T07:07:42.069Z,722.00
2023-05-24T07:08:42.070Z,725.00
2023-05-24T07:09:42.068Z,724.00
2023-05-24T07:10:42.921Z,698.00
2023-05-24T07:11:42.476Z,691.00
2023-05-24T07:12:42.172Z,692.00
2023-05-24T07:13:42.216Z,695.00
2023-05-24T07:14:42.256Z,702.00
2023-05-24T07:15:42.299Z,806.00
2023-05-24T07:16:42.357Z,914.00
2023-05-24T07:17:42.411Z,897.00
2023-05-24T07:18:42.408Z,807.00
2023-05-24T07:19:42.452Z,837.00
2023-05-24T07:20:42.857Z,852.00
2023-05-24T07:21:43.340Z,854.00
2023-05-24T07:22:42.555Z,857.00
2023-05-24T07:23:42.572Z,864.00
2023-05-24T07:24:42.594Z,880.00
2023-05-24T07:25:42.737Z,929.00
2023-05-24T07:26:42.628Z,938.00
2023-05-24T07:27:42.653Z,942.00
2023-05-24T07:28:42.662Z,945.00
2023-05-24T07:29:42.672Z,948.00
2023-05-24T07:30:42.700Z,948.00
2023-05-24T07:31:42.793Z,945.00
2023-05-24T07:32:42.860Z,939.00
2023-05-24T07:33:43.274Z,934.00
2023-05-24T07:34:42.734Z,926.00
2023-05-24T07:35:42.739Z,921.00
2023-05-24T07:36:42.735Z,923.00
2023-05-24T07:37:42.772Z,925.00
2023-05-24T07:38:42.756Z,926.00
2023-05-24T07:39:42.762Z,925.00
2023-05-24T07:40:42.946Z,922.00
2023-05-24T07:41:42.792Z,924.00
2023-05-24T07:42:42.782Z,923.00
2023-05-24T07:43:42.786Z,928.00
2023-05-24T07:44:42.809Z,927.00
2023-05-24T07:45:42.939Z,924.00
2023-05-24T07:46:42.851Z,920.00
2023-05-24T07:47:42.853Z,919.00
2023-05-24T07:48:42.906Z,920.00
2023-05-24T07:49:42.833Z,916.00
2023-05-24T07:50:43.062Z,913.00
2023-05-24T07:51:42.874Z,911.00
2023-05-24T07:52:42.859Z,912.00
2023-05-24T07:53:42.878Z,912.00
2023-05-24T07:54:42.877Z,913.00
2023-05-24T07:55:43.026Z,916.00
2023-05-24T07:56:42.888Z,918.00
2023-05-24T07:57:42.895Z,919.00
2023-05-24T07:58:42.897Z,919.00
2023-05-24T07:59:42.897Z,920.00
2023-05-24T08:00:42.968Z,920.00
2023-05-24T08:01:42.977Z,918.00
2023-05-24T08:02:43.284Z,917.00
2023-05-24T08:03:43.005Z,916.00
2023-05-24T08:04:43.162Z,915.00
2023-05-24T08:05:43.245Z,912.00
2023-05-24T08:06:42.973Z,910.00
2023-05-24T08:07:42.942Z,914.00
2023-05-24T08:08:42.941Z,912.00
2023-05-24T08:09:43.860Z,908.00
2023-05-24T08:10:42.945Z,909.00
2023-05-24T08:11:42.958Z,909.00
2023-05-24T08:12:42.969Z,912.00
2023-05-24T08:13:42.950Z,913.00
2023-05-24T08:14:43.902Z,912.00
2023-05-24T08:15:44.120Z,916.00
2023-05-24T08:16:43.034Z,918.00
2023-05-24T08:17:43.026Z,913.00
2023-05-24T08:18:42.975Z,913.00
2023-05-24T08:19:42.961Z,911.00
2023-05-24T08:20:43.134Z,910.00
2023-05-24T08:21:42.970Z,914.00
2023-05-24T08:22:42.982Z,912.00
2023-05-24T08:23:43.020Z,905.00
2023-05-24T08:24:42.977Z,908.00
2023-05-24T08:25:43.164Z,910.00
2023-05-24T08:26:42.994Z,915.00
2023-05-24T08:27:43.084Z,914.00
2023-05-24T08:28:42.999Z,911.00
2023-05-24T08:29:43.013Z,910.00
2023-05-24T08:30:43.829Z,910.00
2023-05-24T08:31:43.094Z,913.00
2023-05-24T08:32:43.043Z,916.00
2023-05-24T08:33:43.035Z,921.00
2023-05-24T08:34:43.039Z,937.00
2023-05-24T08:35:43.260Z,935.00
2023-05-24T08:36:43.061Z,930.00
2023-05-24T08:37:43.065Z,929.00
2023-05-24T08:38:43.065Z,931.00
2023-05-24T08:39:43.092Z,938.00
2023-05-24T08:40:43.082Z,939.00
2023-05-24T08:41:44.519Z,935.00
2023-05-24T08:42:43.328Z,931.00
2023-05-24T08:43:43.314Z,938.00
2023-05-24T08:44:43.329Z,939.00
2023-05-24T08:45:43.529Z,939.00
2023-05-24T08:46:43.375Z,936.00
2023-05-24T08:47:43.438Z,929.00
2023-05-24T08:48:43.385Z,925.00
2023-05-24T08:49:43.335Z,925.00
2023-05-24T08:50:43.339Z,928.00
2023-05-24T08:51:43.346Z,928.00
2023-05-24T08:52:43.426Z,927.00
2023-05-24T08:53:43.359Z,928.00
2023-05-24T08:54:43.371Z,928.00
2023-05-24T08:55:43.591Z,928.00
2023-05-24T08:56:43.378Z,930.00
2023-05-24T08:57:43.379Z,933.00
2023-05-24T08:58:43.384Z,929.00
2023-05-24T08:59:43.392Z,925.00
2023-05-24T09:00:43.884Z,920.00
2023-05-24T09:01:43.520Z,923.00
2023-05-24T09:02:43.521Z,924.00
2023-05-24T09:03:44.372Z,925.00
2023-05-24T09:04:43.478Z,930.00
2023-05-24T09:05:43.662Z,935.00
2023-05-24T09:06:43.413Z,936.00
2023-05-24T09:07:43.511Z,939.00
2023-05-24T09:08:44.164Z,939.00
2023-05-24T09:09:43.451Z,938.00
2023-05-24T09:10:54.164Z,937.00
2023-05-24T09:11:44.481Z,937.00
2023-05-24T09:12:43.426Z,939.00
2023-05-24T09:13:43.885Z,938.00
2023-05-24T09:14:43.368Z,940.00
2023-05-24T09:15:43.480Z,944.00
2023-05-24T09:16:43.286Z,944.00
2023-05-24T09:17:43.260Z,945.00
2023-05-24T09:18:43.199Z,946.00
2023-05-24T09:19:43.133Z,946.00
2023-05-24T09:20:43.290Z,946.00
2023-05-24T09:21:43.085Z,944.00
2023-05-24T09:22:43.121Z,945.00
2023-05-24T09:23:43.138Z,941.00
2023-05-24T09:24:42.963Z,940.00
2023-05-24T09:25:42.952Z,939.00
2023-05-24T09:26:42.905Z,939.00
2023-05-24T09:27:42.911Z,942.00
2023-05-24T09:28:42.942Z,944.00
2023-05-24T09:29:42.936Z,944.00
2023-05-24T09:30:43.112Z,947.00
2023-05-24T09:31:42.991Z,946.00
2023-05-24T09:32:42.972Z,947.00
2023-05-24T09:33:42.956Z,945.00
2023-05-24T09:34:42.969Z,946.00
2023-05-24T09:35:42.982Z,946.00
2023-05-24T09:36:43.030Z,947.00
2023-05-24T09:37:43.004Z,944.00
2023-05-24T09:38:43.408Z,946.00
2023-05-24T09:39:43.011Z,947.00
2023-05-24T09:40:43.134Z,947.00
2023-05-24T09:41:43.020Z,949.00
2023-05-24T09:42:43.022Z,950.00
2023-05-24T09:43:43.037Z,949.00
2023-05-24T09:44:43.910Z,951.00
2023-05-24T09:45:43.054Z,952.00
2023-05-24T09:46:43.107Z,950.00
2023-05-24T09:47:43.132Z,950.00
2023-05-24T09:48:43.076Z,952.00
2023-05-24T09:49:43.080Z,959.00
2023-05-24T09:50:43.340Z,967.00
2023-05-24T09:51:43.281Z,965.00
2023-05-24T09:52:43.135Z,968.00
2023-05-24T09:53:43.144Z,970.00
2023-05-24T09:54:43.171Z,971.00
2023-05-24T09:55:43.147Z,973.00
2023-05-24T09:56:43.205Z,972.00
2023-05-24T09:57:43.173Z,971.00
2023-05-24T09:58:43.170Z,976.00
2023-05-24T09:59:43.218Z,978.00
2023-05-24T10:00:43.960Z,981.00
2023-05-24T10:01:43.271Z,975.00
2023-05-24T10:02:53.050Z,974.00
2023-05-24T10:03:44.218Z,980.00
2023-05-24T10:04:43.191Z,988.00
2023-05-24T10:05:43.137Z,995.00
2023-05-24T10:06:43.194Z,995.00
2023-05-24T10:07:43.093Z,991.00
2023-05-24T10:08:43.047Z,986.00
2023-05-24T10:09:43.016Z,990.00
2023-05-24T10:10:43.274Z,994.00
2023-05-24T10:11:42.986Z,993.00
2023-05-24T10:12:42.950Z,992.00
2023-05-24T10:13:43.409Z,993.00
2023-05-24T10:14:42.877Z,995.00
2023-05-24T10:15:42.856Z,1000.00
2023-05-24T10:16:42.885Z,1000.00
2023-05-24T10:17:42.900Z,1003.00
2023-05-24T10:18:42.896Z,998.00
2023-05-24T10:19:42.926Z,1001.00
2023-05-24T10:20:43.340Z,1002.00
2023-05-24T10:21:43.940Z,1000.00
2023-05-24T10:22:42.969Z,1016.00
2023-05-24T10:23:42.993Z,1010.00
2023-05-24T10:24:43.907Z,1014.00
2023-05-24T10:25:43.053Z,1005.00
2023-05-24T10:26:43.061Z,1012.00
2023-05-24T10:27:43.072Z,1015.00
2023-05-24T10:28:43.154Z,1013.00
2023-05-24T10:29:43.116Z,1008.00
2023-05-24T10:30:43.556Z,1018.00
2023-05-24T10:31:43.202Z,1019.00
2023-05-24T10:32:43.229Z,1019.00
2023-05-24T10:33:43.213Z,1021.00
2023-05-24T10:34:43.227Z,1023.00
2023-05-24T10:35:43.279Z,1022.00
2023-05-24T10:36:43.274Z,1024.00
2023-05-24T10:37:43.285Z,1018.00
2023-05-24T10:38:43.306Z,1023.00
2023-05-24T10:39:43.334Z,1020.00
2023-05-24T10:40:43.334Z,1011.00
2023-05-24T10:41:43.381Z,1020.00
2023-05-24T10:42:43.378Z,1020.00
2023-05-24T10:43:43.983Z,1019.00
2023-05-24T10:44:44.360Z,1038.00
2023-05-24T10:45:43.355Z,1036.00
2023-05-24T10:46:43.333Z,1028.00
2023-05-24T10:47:43.387Z,1026.00
2023-05-24T10:48:43.246Z,1032.00
2023-05-24T10:49:43.289Z,1037.00
2023-05-24T10:50:43.391Z,1041.00
2023-05-24T10:51:43.160Z,1040.00
2023-05-24T10:52:43.125Z,1043.00
2023-05-24T10:53:43.094Z,1047.00
2023-05-24T10:54:56.016Z,1037.00
2023-05-24T10:55:44.108Z,1037.00
2023-05-24T10:56:43.024Z,1039.00
2023-05-24T10:57:42.995Z,1043.00
2023-05-24T10:58:42.967Z,1041.00
2023-05-24T10:59:43.425Z,1036.00
2023-05-24T11:00:43.073Z,1031.00
2023-05-24T11:01:42.892Z,1028.00
2023-05-24T11:02:43.178Z,1022.00
2023-05-24T11:03:42.826Z,1020.00
2023-05-24T11:04:42.805Z,1017.00
2023-05-24T11:05:46.332Z,1013.00
2023-05-24T11:06:42.751Z,1012.00
2023-05-24T11:07:42.781Z,1014.00
2023-05-24T11:08:42.824Z,1009.00
2023-05-24T11:09:42.697Z,1004.00
2023-05-24T11:10:42.946Z,1003.00
2023-05-24T11:11:42.642Z,999.00
2023-05-24T11:12:42.616Z,1000.00
2023-05-24T11:13:43.431Z,1001.00
2023-05-24T11:14:42.580Z,1003.00
2023-05-24T11:15:42.546Z,997.00
2023-05-24T11:16:42.645Z,997.00
2023-05-24T11:17:43.657Z,997.00
2023-05-24T11:18:42.476Z,997.00
2023-05-24T11:19:42.443Z,996.00
2023-05-24T11:20:42.790Z,991.00
2023-05-24T11:21:42.390Z,990.00
2023-05-24T11:22:42.348Z,988.00
2023-05-24T11:23:42.312Z,988.00
2023-05-24T11:24:42.452Z,989.00
2023-05-24T11:25:42.250Z,989.00
2023-05-24T11:26:42.217Z,990.00
2023-05-24T11:27:42.198Z,994.00
2023-05-24T11:28:42.201Z,993.00
2023-05-24T11:29:42.129Z,995.00
2023-05-24T11:30:44.123Z,998.00
2023-05-24T11:31:44.713Z,998.00
2023-05-24T11:32:42.102Z,996.00
2023-05-24T11:33:42.035Z,994.00
2023-05-24T11:34:42.005Z,994.00
2023-05-24T11:35:41.982Z,994.00
2023-05-24T11:36:41.963Z,993.00
2023-05-24T11:37:46.414Z,998.00
2023-05-24T11:38:42.928Z,998.00
2023-05-24T11:39:41.878Z,996.00
2023-05-24T11:40:42.005Z,992.00
2023-05-24T11:41:41.843Z,993.00
2023-05-24T11:42:41.814Z,994.00
2023-05-24T11:43:42.455Z,993.00
2023-05-24T11:44:41.765Z,995.00
2023-05-24T11:45:41.754Z,997.00
2023-05-24T11:46:41.707Z,995.00
2023-05-24T11:47:41.738Z,995.00
2023-05-24T11:48:42.302Z,997.00
2023-05-24T11:49:41.625Z,1001.00
2023-05-24T11:50:49.138Z,1005.00
2023-05-24T11:51:42.642Z,1008.00
2023-05-24T11:52:41.536Z,1007.00
2023-05-24T11:53:41.504Z,1008.00
2023-05-24T11:54:41.480Z,1006.00
2023-05-24T11:55:41.695Z,1005.00
2023-05-24T11:56:41.435Z,1007.00
2023-05-24T11:57:41.413Z,1004.00
2023-05-24T11:58:41.366Z,1004.00
2023-05-24T11:59:41.348Z,1000.00
2023-05-24T12:00:41.601Z,999.00
2023-05-24T12:01:41.299Z,998.00
2023-05-24T12:02:41.432Z,997.00
2023-05-24T12:03:41.459Z,999.00
2023-05-24T12:04:41.313Z,996.00
2023-05-24T12:05:41.217Z,996.00
2023-05-24T12:06:41.296Z,1000.00
2023-05-24T12:07:41.295Z,1000.00
2023-05-24T12:08:41.282Z,1000.00
2023-05-24T12:09:41.290Z,1001.00
2023-05-24T12:10:41.616Z,1003.00
2023-05-24T12:11:41.345Z,1003.00
2023-05-24T12:12:45.837Z,1009.00
2023-05-24T12:13:41.334Z,1013.00